sensor_id;sensor_type;location;lat;lon;timestamp;temperature;humidity
16643;DHT22;8435;52.184;5.406;2024-03-23T00:54:31;10.50;99.90
16643;DHT22;8435;52.184;5.406;2024-03-23T00:56:58;10.50;99.90
16643;DHT22;8435;52.184;5.406;2024-03-23T00:59:24;10.50;99.90
16643;DHT22;8435;52.184;5.406;2024-03-23T01:01:53;10.50;99.90
16643;DHT22;8435;52.184;5.406;2024-03-23T01:04:19;10.50;99.90
16643;DHT22;8435;52.184;5.406;2024-03-23T01:06:46;10.50;99.90
16643;DHT22;8435;52.184;5.406;2024-03-23T01:09:12;10.40;99.90
16643;DHT22;8435;52.184;5.406;2024-03-23T01:11:40;10.50;99.90
16643;DHT22;8435;52.184;5.406;2024-03-23T01:14:06;10.40;99.90
16643;DHT22;8435;52.184;5.406;2024-03-23T01:16:33;10.50;99.90
16643;DHT22;8435;52.184;5.406;2024-03-23T01:18:59;10.50;99.90
16643;DHT22;8435;52.184;5.406;2024-03-23T01:21:26;10.50;99.90
16643;DHT22;8435;52.184;5.406;2024-03-23T01:23:51;10.50;99.90
16643;DHT22;8435;52.184;5.406;2024-03-23T01:26:18;10.50;99.90
16643;DHT22;8435;52.184;5.406;2024-03-23T01:28:45;10.50;99.90
16643;DHT22;8435;52.184;5.406;2024-03-23T01:31:12;10.50;99.90
16643;DHT22;8435;52.184;5.406;2024-03-23T01:33:38;10.50;99.90
16643;DHT22;8435;52.184;5.406;2024-03-23T01:36:05;10.50;99.90
16643;DHT22;8435;52.184;5.406;2024-03-23T01:38:30;10.50;99.90
16643;DHT22;8435;52.184;5.406;2024-03-23T01:40:57;10.50;99.90
16643;DHT22;8435;52.184;5.406;2024-03-23T01:43:23;10.50;99.90
16643;DHT22;8435;52.184;5.406;2024-03-23T01:45:51;10.50;99.90
16643;DHT22;8435;52.184;5.406;2024-03-23T01:48:19;10.50;99.90
16643;DHT22;8435;52.184;5.406;2024-03-23T01:50:46;10.40;99.90
16643;DHT22;8435;52.184;5.406;2024-03-23T01:53:12;10.50;99.90
16643;DHT22;8435;52.184;5.406;2024-03-23T01:55:42;10.40;99.90
16643;DHT22;8435;52.184;5.406;2024-03-23T01:58:08;10.40;99.90
16643;DHT22;8435;52.184;5.406;2024-03-23T02:00:35;10.30;99.90
16643;DHT22;8435;52.184;5.406;2024-03-23T02:03:02;10.30;99.90
16643;DHT22;8435;52.184;5.406;2024-03-23T02:05:29;10.30;99.90
16643;DHT22;8435;52.184;5.406;2024-03-23T02:07:56;10.30;99.90
16643;DHT22;8435;52.184;5.406;2024-03-23T02:10:22;10.20;99.90
16643;DHT22;8435;52.184;5.406;2024-03-23T02:12:49;10.20;99.90
16643;DHT22;8435;52.184;5.406;2024-03-23T02:15:15;10.10;99.90
16643;DHT22;8435;52.184;5.406;2024-03-23T02:17:42;10.10;99.90
16643;DHT22;8435;52.184;5.406;2024-03-23T02:20:12;10.10;99.90
16643;DHT22;8435;52.184;5.406;2024-03-23T02:22:39;10.00;99.90
16643;DHT22;8435;52.184;5.406;2024-03-23T02:25:07;10.00;99.90
16643;DHT22;8435;52.184;5.406;2024-03-23T02:27:33;9.90;99.90
16643;DHT22;8435;52.184;5.406;2024-03-23T02:30:01;9.90;99.90
16643;DHT22;8435;52.184;5.406;2024-03-23T02:32:28;9.90;99.90
16643;DHT22;8435;52.184;5.406;2024-03-23T02:34:53;9.90;99.90
16643;DHT22;8435;52.184;5.406;2024-03-23T02:37:20;9.80;99.90
16643;DHT22;8435;52.184;5.406;2024-03-23T02:39:46;9.80;99.90
16643;DHT22;8435;52.184;5.406;2024-03-23T02:42:14;9.70;99.90
16643;DHT22;8435;52.184;5.406;2024-03-23T02:44:42;9.70;99.90
16643;DHT22;8435;52.184;5.406;2024-03-23T02:47:09;9.70;99.90
16643;DHT22;8435;52.184;5.406;2024-03-23T02:49:34;9.70;99.90
16643;DHT22;8435;52.184;5.406;2024-03-23T02:52:01;9.60;99.90
16643;DHT22;8435;52.184;5.406;2024-03-23T02:54:27;9.60;99.90
16643;DHT22;8435;52.184;5.406;2024-03-23T02:56:54;9.60;99.90
16643;DHT22;8435;52.184;5.406;2024-03-23T02:59:21;9.60;99.90
16643;DHT22;8435;52.184;5.406;2024-03-23T03:01:48;9.50;99.90
16643;DHT22;8435;52.184;5.406;2024-03-23T03:04:14;9.60;99.90
16643;DHT22;8435;52.184;5.406;2024-03-23T03:06:40;9.50;99.90
16643;DHT22;8435;52.184;5.406;2024-03-23T03:09:06;9.50;99.90
16643;DHT22;8435;52.184;5.406;2024-03-23T03:11:33;9.50;99.90
16643;DHT22;8435;52.184;5.406;2024-03-23T03:13:59;9.40;99.90
16643;DHT22;8435;52.184;5.406;2024-03-23T03:16:28;9.40;99.90
16643;DHT22;8435;52.184;5.406;2024-03-23T03:18:54;9.40;99.90
16643;DHT22;8435;52.184;5.406;2024-03-23T03:21:21;9.40;99.90
16643;DHT22;8435;52.184;5.406;2024-03-23T03:23:47;9.40;99.90
16643;DHT22;8435;52.184;5.406;2024-03-23T03:26:15;9.40;99.90
16643;DHT22;8435;52.184;5.406;2024-03-23T03:28:41;9.40;99.90
16643;DHT22;8435;52.184;5.406;2024-03-23T03:31:08;9.30;99.90
16643;DHT22;8435;52.184;5.406;2024-03-23T03:33:35;9.30;99.90
16643;DHT22;8435;52.184;5.406;2024-03-23T03:36:03;9.30;99.90
16643;DHT22;8435;52.184;5.406;2024-03-23T03:38:28;9.20;99.90
16643;DHT22;8435;52.184;5.406;2024-03-23T03:40:55;9.20;99.90
16643;DHT22;8435;52.184;5.406;2024-03-23T03:43:21;9.20;99.90
16643;DHT22;8435;52.184;5.406;2024-03-23T03:45:51;9.10;99.90
16643;DHT22;8435;52.184;5.406;2024-03-23T03:48:18;9.10;99.90
16643;DHT22;8435;52.184;5.406;2024-03-23T03:50:46;9.00;99.90
16643;DHT22;8435;52.184;5.406;2024-03-23T03:53:12;9.00;99.90
16643;DHT22;8435;52.184;5.406;2024-03-23T03:55:38;8.90;99.90
16643;DHT22;8435;52.184;5.406;2024-03-23T03:58:04;8.80;99.90
16643;DHT22;8435;52.184;5.406;2024-03-23T04:00:31;8.80;99.90
16643;DHT22;8435;52.184;5.406;2024-03-23T04:02:57;8.80;99.90
16643;DHT22;8435;52.184;5.406;2024-03-23T04:05:24;8.80;99.90
16643;DHT22;8435;52.184;5.406;2024-03-23T04:07:51;8.70;99.90
16643;DHT22;8435;52.184;5.406;2024-03-23T04:10:18;8.70;99.90
16643;DHT22;8435;52.184;5.406;2024-03-23T04:12:44;8.60;99.90
16643;DHT22;8435;52.184;5.406;2024-03-23T04:15:11;8.60;99.90
16643;DHT22;8435;52.184;5.406;2024-03-23T04:17:37;8.60;99.90
16643;DHT22;8435;52.184;5.406;2024-03-23T04:20:05;8.60;99.90
16643;DHT22;8435;52.184;5.406;2024-03-23T04:22:34;8.60;99.90
16643;DHT22;8435;52.184;5.406;2024-03-23T04:25:03;8.50;99.90
16643;DHT22;8435;52.184;5.406;2024-03-23T04:27:32;8.50;99.90
16643;DHT22;8435;52.184;5.406;2024-03-23T04:29:58;8.50;99.90
16643;DHT22;8435;52.184;5.406;2024-03-23T04:32:26;8.50;99.90
16643;DHT22;8435;52.184;5.406;2024-03-23T04:34:53;8.50;99.90
16643;DHT22;8435;52.184;5.406;2024-03-23T04:37:20;8.50;99.90
16643;DHT22;8435;52.184;5.406;2024-03-23T04:39:46;8.50;99.90
16643;DHT22;8435;52.184;5.406;2024-03-23T04:42:15;8.50;99.90
16643;DHT22;8435;52.184;5.406;2024-03-23T04:44:42;8.50;99.90
16643;DHT22;8435;52.184;5.406;2024-03-23T04:47:10;8.50;99.90
16643;DHT22;8435;52.184;5.406;2024-03-23T04:49:37;8.50;99.90
16643;DHT22;8435;52.184;5.406;2024-03-23T04:52:04;8.50;99.90
16643;DHT22;8435;52.184;5.406;2024-03-23T04:54:31;8.50;99.90
16643;DHT22;8435;52.184;5.406;2024-03-23T04:56:59;8.50;99.90
16643;DHT22;8435;52.184;5.406;2024-03-23T04:59:27;8.50;99.90
16643;DHT22;8435;52.184;5.406;2024-03-23T05:01:53;8.40;99.90
16643;DHT22;8435;52.184;5.406;2024-03-23T05:04:20;8.40;99.90
16643;DHT22;8435;52.184;5.406;2024-03-23T05:06:45;8.40;99.90
16643;DHT22;8435;52.184;5.406;2024-03-23T05:09:12;8.40;99.90
16643;DHT22;8435;52.184;5.406;2024-03-23T05:11:38;8.30;99.90
16643;DHT22;8435;52.184;5.406;2024-03-23T05:14:05;8.30;99.90
16643;DHT22;8435;52.184;5.406;2024-03-23T05:16:32;8.30;99.90
16643;DHT22;8435;52.184;5.406;2024-03-23T05:18:59;8.20;99.90
16643;DHT22;8435;52.184;5.406;2024-03-23T05:21:25;8.20;99.90
16643;DHT22;8435;52.184;5.406;2024-03-23T05:23:53;8.20;99.90
16643;DHT22;8435;52.184;5.406;2024-03-23T05:26:19;8.10;99.90
16643;DHT22;8435;52.184;5.406;2024-03-23T05:28:45;8.10;99.90
16643;DHT22;8435;52.184;5.406;2024-03-23T05:31:11;8.10;99.90
16643;DHT22;8435;52.184;5.406;2024-03-23T05:33:39;8.10;99.90
16643;DHT22;8435;52.184;5.406;2024-03-23T05:36:05;8.00;99.90
16643;DHT22;8435;52.184;5.406;2024-03-23T05:38:36;8.00;99.90
16643;DHT22;8435;52.184;5.406;2024-03-23T05:41:02;8.00;99.90
16643;DHT22;8435;52.184;5.406;2024-03-23T05:43:29;8.00;99.90
16643;DHT22;8435;52.184;5.406;2024-03-23T05:45:55;8.00;99.90
16643;DHT22;8435;52.184;5.406;2024-03-23T05:48:22;8.00;99.90
16643;DHT22;8435;52.184;5.406;2024-03-23T05:50:49;8.00;99.90
16643;DHT22;8435;52.184;5.406;2024-03-23T05:53:17;8.00;99.90
16643;DHT22;8435;52.184;5.406;2024-03-23T05:55:43;8.00;99.90
16643;DHT22;8435;52.184;5.406;2024-03-23T05:58:11;8.10;99.90
16643;DHT22;8435;52.184;5.406;2024-03-23T06:00:37;8.10;99.90
16643;DHT22;8435;52.184;5.406;2024-03-23T06:03:04;8.20;99.90
16643;DHT22;8435;52.184;5.406;2024-03-23T06:05:30;8.30;99.90
16643;DHT22;8435;52.184;5.406;2024-03-23T06:07:58;8.30;99.90
16643;DHT22;8435;52.184;5.406;2024-03-23T06:10:24;8.30;99.90
16643;DHT22;8435;52.184;5.406;2024-03-23T06:12:50;8.40;99.90
16643;DHT22;8435;52.184;5.406;2024-03-23T06:15:17;8.40;99.90
16643;DHT22;8435;52.184;5.406;2024-03-23T06:17:44;8.40;99.90
16643;DHT22;8435;52.184;5.406;2024-03-23T06:20:10;8.40;99.90
16643;DHT22;8435;52.184;5.406;2024-03-23T06:22:37;8.40;99.90
16643;DHT22;8435;52.184;5.406;2024-03-23T06:25:04;8.40;99.90
16643;DHT22;8435;52.184;5.406;2024-03-23T06:27:31;8.50;99.90
16643;DHT22;8435;52.184;5.406;2024-03-23T06:29:57;8.50;99.90
16643;DHT22;8435;52.184;5.406;2024-03-23T06:32:24;8.60;99.90
16643;DHT22;8435;52.184;5.406;2024-03-23T06:34:50;8.70;99.90
16643;DHT22;8435;52.184;5.406;2024-03-23T06:37:17;8.70;99.90
16643;DHT22;8435;52.184;5.406;2024-03-23T06:39:43;8.80;99.90
16643;DHT22;8435;52.184;5.406;2024-03-23T06:42:11;8.80;99.90
16643;DHT22;8435;52.184;5.406;2024-03-23T06:44:36;8.90;99.90
16643;DHT22;8435;52.184;5.406;2024-03-23T06:47:03;9.00;99.90
16643;DHT22;8435;52.184;5.406;2024-03-23T06:49:29;9.00;99.90
16643;DHT22;8435;52.184;5.406;2024-03-23T06:51:56;9.10;99.90
16643;DHT22;8435;52.184;5.406;2024-03-23T06:54:22;9.20;99.90
16643;DHT22;8435;52.184;5.406;2024-03-23T06:56:48;9.40;99.90
16643;DHT22;8435;52.184;5.406;2024-03-23T06:59:15;9.50;99.90
16643;DHT22;8435;52.184;5.406;2024-03-23T07:01:43;9.60;99.90
16643;DHT22;8435;52.184;5.406;2024-03-23T07:04:08;9.70;99.90
16643;DHT22;8435;52.184;5.406;2024-03-23T07:06:42;9.80;99.90
16643;DHT22;8435;52.184;5.406;2024-03-23T07:09:08;10.00;99.90
16643;DHT22;8435;52.184;5.406;2024-03-23T07:11:35;10.10;99.90
16643;DHT22;8435;52.184;5.406;2024-03-23T07:14:00;10.20;99.90
16643;DHT22;8435;52.184;5.406;2024-03-23T07:16:29;10.30;99.90
16643;DHT22;8435;52.184;5.406;2024-03-23T07:18:55;10.40;99.90
16643;DHT22;8435;52.184;5.406;2024-03-23T07:21:22;10.50;99.90
16643;DHT22;8435;52.184;5.406;2024-03-23T07:23:48;10.60;99.90
16643;DHT22;8435;52.184;5.406;2024-03-23T07:26:14;10.70;99.90
16643;DHT22;8435;52.184;5.406;2024-03-23T07:28:40;10.80;99.90
16643;DHT22;8435;52.184;5.406;2024-03-23T07:31:10;10.90;99.90
16643;DHT22;8435;52.184;5.406;2024-03-23T07:33:41;11.00;99.90
16643;DHT22;8435;52.184;5.406;2024-03-23T07:36:08;11.10;99.90
16643;DHT22;8435;52.184;5.406;2024-03-23T07:38:34;11.30;99.90
16643;DHT22;8435;52.184;5.406;2024-03-23T07:41:04;11.40;99.90
16643;DHT22;8435;52.184;5.406;2024-03-23T07:43:30;11.50;99.90
16643;DHT22;8435;52.184;5.406;2024-03-23T07:45:57;11.70;99.90
16643;DHT22;8435;52.184;5.406;2024-03-23T07:48:23;11.80;99.90
16643;DHT22;8435;52.184;5.406;2024-03-23T07:50:59;12.10;99.90
16643;DHT22;8435;52.184;5.406;2024-03-23T07:53:25;12.30;99.90
16643;DHT22;8435;52.184;5.406;2024-03-23T07:55:55;12.50;99.90
16643;DHT22;8435;52.184;5.406;2024-03-23T07:58:21;12.60;99.90
16643;DHT22;8435;52.184;5.406;2024-03-23T08:00:48;12.80;99.90
16643;DHT22;8435;52.184;5.406;2024-03-23T08:03:14;12.80;99.90
16643;DHT22;8435;52.184;5.406;2024-03-23T08:05:41;12.90;99.90
16643;DHT22;8435;52.184;5.406;2024-03-23T08:08:08;12.90;99.90
16643;DHT22;8435;52.184;5.406;2024-03-23T08:10:36;13.00;99.90
16643;DHT22;8435;52.184;5.406;2024-03-23T08:13:02;13.00;99.90
16643;DHT22;8435;52.184;5.406;2024-03-23T08:15:30;13.00;99.90
16643;DHT22;8435;52.184;5.406;2024-03-23T08:17:58;13.10;99.90
16643;DHT22;8435;52.184;5.406;2024-03-23T08:20:25;13.20;99.90
16643;DHT22;8435;52.184;5.406;2024-03-23T08:22:51;13.30;99.90
16643;DHT22;8435;52.184;5.406;2024-03-23T08:25:19;13.50;99.90
16643;DHT22;8435;52.184;5.406;2024-03-23T08:27:45;13.60;99.90
16643;DHT22;8435;52.184;5.406;2024-03-23T08:30:12;13.60;99.90
16643;DHT22;8435;52.184;5.406;2024-03-23T08:32:38;13.60;99.30
16643;DHT22;8435;52.184;5.406;2024-03-23T08:35:05;13.60;99.10
16643;DHT22;8435;52.184;5.406;2024-03-23T08:37:32;13.50;98.60
16643;DHT22;8435;52.184;5.406;2024-03-23T08:39:59;13.40;98.50
16643;DHT22;8435;52.184;5.406;2024-03-23T08:42:26;13.20;98.70
16643;DHT22;8435;52.184;5.406;2024-03-23T08:44:53;13.10;99.00
16643;DHT22;8435;52.184;5.406;2024-03-23T08:47:18;13.10;99.60
16643;DHT22;8435;52.184;5.406;2024-03-23T08:49:45;13.10;99.50
16643;DHT22;8435;52.184;5.406;2024-03-23T08:52:11;13.30;99.30
16643;DHT22;8435;52.184;5.406;2024-03-23T08:54:38;13.40;98.90
16643;DHT22;8435;52.184;5.406;2024-03-23T08:57:04;13.50;98.50
16643;DHT22;8435;52.184;5.406;2024-03-23T08:59:32;13.50;97.90
16643;DHT22;8435;52.184;5.406;2024-03-23T09:01:57;13.50;97.70
16643;DHT22;8435;52.184;5.406;2024-03-23T09:04:24;13.50;98.40
16643;DHT22;8435;52.184;5.406;2024-03-23T09:06:50;13.50;98.70
16643;DHT22;8435;52.184;5.406;2024-03-23T09:09:17;13.70;98.30
16643;DHT22;8435;52.184;5.406;2024-03-23T09:11:43;13.80;98.20
16643;DHT22;8435;52.184;5.406;2024-03-23T09:14:10;13.90;97.80
16643;DHT22;8435;52.184;5.406;2024-03-23T09:16:37;14.00;96.90
16643;DHT22;8435;52.184;5.406;2024-03-23T09:19:04;14.00;96.60
16643;DHT22;8435;52.184;5.406;2024-03-23T09:21:29;14.00;96.40
16643;DHT22;8435;52.184;5.406;2024-03-23T09:23:56;14.10;96.60
16643;DHT22;8435;52.184;5.406;2024-03-23T09:26:22;14.10;96.80
16643;DHT22;8435;52.184;5.406;2024-03-23T09:28:49;14.20;96.70
16643;DHT22;8435;52.184;5.406;2024-03-23T09:31:14;14.30;96.60
16643;DHT22;8435;52.184;5.406;2024-03-23T09:33:43;14.30;96.60
16643;DHT22;8435;52.184;5.406;2024-03-23T09:36:08;14.40;96.30
16643;DHT22;8435;52.184;5.406;2024-03-23T09:38:35;14.40;96.10
16643;DHT22;8435;52.184;5.406;2024-03-23T09:41:07;14.40;95.80
16643;DHT22;8435;52.184;5.406;2024-03-23T09:43:33;14.40;95.80
16643;DHT22;8435;52.184;5.406;2024-03-23T09:45:59;14.40;96.10
16643;DHT22;8435;52.184;5.406;2024-03-23T09:48:26;14.30;96.00
16643;DHT22;8435;52.184;5.406;2024-03-23T09:50:53;14.20;95.50
16643;DHT22;8435;52.184;5.406;2024-03-23T09:53:20;14.20;95.30
16643;DHT22;8435;52.184;5.406;2024-03-23T09:55:48;14.10;95.60
16643;DHT22;8435;52.184;5.406;2024-03-23T09:58:16;14.10;95.90
16643;DHT22;8435;52.184;5.406;2024-03-23T10:00:42;14.00;96.20
16643;DHT22;8435;52.184;5.406;2024-03-23T10:03:09;14.00;96.50
16643;DHT22;8435;52.184;5.406;2024-03-23T10:05:37;14.00;96.40
16643;DHT22;8435;52.184;5.406;2024-03-23T10:08:18;14.00;96.40
16643;DHT22;8435;52.184;5.406;2024-03-23T10:10:45;13.90;96.00
16643;DHT22;8435;52.184;5.406;2024-03-23T10:13:24;13.90;96.30
16643;DHT22;8435;52.184;5.406;2024-03-23T10:16:00;13.80;95.80
16643;DHT22;8435;52.184;5.406;2024-03-23T10:18:26;13.70;95.40
16643;DHT22;8435;52.184;5.406;2024-03-23T10:21:07;13.50;95.60
16643;DHT22;8435;52.184;5.406;2024-03-23T10:23:35;13.30;95.60
16643;DHT22;8435;52.184;5.406;2024-03-23T10:26:16;13.20;96.00
16643;DHT22;8435;52.184;5.406;2024-03-23T10:28:53;13.10;95.80
16643;DHT22;8435;52.184;5.406;2024-03-23T10:31:20;13.10;96.20
16643;DHT22;8435;52.184;5.406;2024-03-23T10:33:46;13.10;96.40
16643;DHT22;8435;52.184;5.406;2024-03-23T10:36:13;13.10;96.20
16643;DHT22;8435;52.184;5.406;2024-03-23T10:38:42;13.10;96.30
16643;DHT22;8435;52.184;5.406;2024-03-23T10:41:09;13.20;95.70
16643;DHT22;8435;52.184;5.406;2024-03-23T10:43:36;13.20;95.80
16643;DHT22;8435;52.184;5.406;2024-03-23T10:46:03;13.20;95.80
16643;DHT22;8435;52.184;5.406;2024-03-23T10:48:29;13.30;95.70
16643;DHT22;8435;52.184;5.406;2024-03-23T10:50:56;13.30;95.70
16643;DHT22;8435;52.184;5.406;2024-03-23T10:53:25;13.30;95.30
16643;DHT22;8435;52.184;5.406;2024-03-23T10:55:55;13.30;94.60
16643;DHT22;8435;52.184;5.406;2024-03-23T10:58:24;13.30;94.50
16643;DHT22;8435;52.184;5.406;2024-03-23T11:00:52;13.20;94.50
16643;DHT22;8435;52.184;5.406;2024-03-23T11:03:32;13.20;94.50
16643;DHT22;8435;52.184;5.406;2024-03-23T11:05:59;13.00;94.70
16643;DHT22;8435;52.184;5.406;2024-03-23T11:08:33;13.00;95.30
16643;DHT22;8435;52.184;5.406;2024-03-23T11:11:15;12.90;95.30
16643;DHT22;8435;52.184;5.406;2024-03-23T11:13:42;12.90;95.60
16643;DHT22;8435;52.184;5.406;2024-03-23T11:16:23;12.90;96.00
16643;DHT22;8435;52.184;5.406;2024-03-23T11:18:49;12.80;95.90
16643;DHT22;8435;52.184;5.406;2024-03-23T11:21:52;12.90;96.10
16643;DHT22;8435;52.184;5.406;2024-03-23T11:24:19;13.00;95.00
16643;DHT22;8435;52.184;5.406;2024-03-23T11:26:47;13.00;96.00
16643;DHT22;8435;52.184;5.406;2024-03-23T11:29:14;13.10;96.00
16643;DHT22;8435;52.184;5.406;2024-03-23T11:31:46;13.20;96.10
16643;DHT22;8435;52.184;5.406;2024-03-23T11:34:12;13.30;95.10
16643;DHT22;8435;52.184;5.406;2024-03-23T11:36:38;13.20;95.00
16643;DHT22;8435;52.184;5.406;2024-03-23T11:39:12;13.30;94.70
16643;DHT22;8435;52.184;5.406;2024-03-23T11:41:50;13.20;94.30
16643;DHT22;8435;52.184;5.406;2024-03-23T11:44:17;13.20;93.80
16643;DHT22;8435;52.184;5.406;2024-03-23T11:46:44;13.10;94.20
16643;DHT22;8435;52.184;5.406;2024-03-23T11:49:22;13.10;94.20
16643;DHT22;8435;52.184;5.406;2024-03-23T11:51:50;13.10;94.20
16643;DHT22;8435;52.184;5.406;2024-03-23T11:54:16;13.00;94.80
16643;DHT22;8435;52.184;5.406;2024-03-23T11:56:56;13.10;94.80
16643;DHT22;8435;52.184;5.406;2024-03-23T11:59:35;13.10;95.00
16643;DHT22;8435;52.184;5.406;2024-03-23T12:02:06;13.20;94.70
16643;DHT22;8435;52.184;5.406;2024-03-23T12:04:32;13.30;94.50
16643;DHT22;8435;52.184;5.406;2024-03-23T12:07:15;13.30;94.40
16643;DHT22;8435;52.184;5.406;2024-03-23T12:09:42;13.40;93.00
16643;DHT22;8435;52.184;5.406;2024-03-23T12:12:13;13.40;93.60
16643;DHT22;8435;52.184;5.406;2024-03-23T12:14:40;13.50;93.20
16643;DHT22;8435;52.184;5.406;2024-03-23T12:17:11;13.50;92.90
16643;DHT22;8435;52.184;5.406;2024-03-23T12:19:37;13.50;92.70
16643;DHT22;8435;52.184;5.406;2024-03-23T12:22:04;13.50;92.80
16643;DHT22;8435;52.184;5.406;2024-03-23T12:24:31;13.50;92.90
16643;DHT22;8435;52.184;5.406;2024-03-23T12:27:00;13.60;93.00
16643;DHT22;8435;52.184;5.406;2024-03-23T12:29:28;13.60;93.20
16643;DHT22;8435;52.184;5.406;2024-03-23T12:31:55;13.60;93.00
16643;DHT22;8435;52.184;5.406;2024-03-23T12:34:21;13.60;92.90
16643;DHT22;8435;52.184;5.406;2024-03-23T12:36:48;13.70;92.80
16643;DHT22;8435;52.184;5.406;2024-03-23T12:39:13;13.70;92.90
16643;DHT22;8435;52.184;5.406;2024-03-23T12:41:40;13.70;92.70
16643;DHT22;8435;52.184;5.406;2024-03-23T12:44:06;13.70;92.50
16643;DHT22;8435;52.184;5.406;2024-03-23T12:46:36;13.70;92.10
16643;DHT22;8435;52.184;5.406;2024-03-23T12:49:01;13.60;91.80
16643;DHT22;8435;52.184;5.406;2024-03-23T12:51:28;13.60;91.60
16643;DHT22;8435;52.184;5.406;2024-03-23T12:53:54;13.60;91.80
16643;DHT22;8435;52.184;5.406;2024-03-23T12:56:21;13.60;91.90
16643;DHT22;8435;52.184;5.406;2024-03-23T12:58:47;13.60;91.90
16643;DHT22;8435;52.184;5.406;2024-03-23T13:01:16;13.60;92.10
16643;DHT22;8435;52.184;5.406;2024-03-23T13:03:46;13.60;92.20
16643;DHT22;8435;52.184;5.406;2024-03-23T13:06:13;13.50;92.10
16643;DHT22;8435;52.184;5.406;2024-03-23T13:08:39;13.60;91.90
16643;DHT22;8435;52.184;5.406;2024-03-23T13:11:06;13.60;90.70
16643;DHT22;8435;52.184;5.406;2024-03-23T13:13:34;13.60;90.60
16643;DHT22;8435;52.184;5.406;2024-03-23T13:16:00;13.60;90.80
16643;DHT22;8435;52.184;5.406;2024-03-23T13:18:27;13.60;90.60
16643;DHT22;8435;52.184;5.406;2024-03-23T13:20:55;13.60;91.00
16643;DHT22;8435;52.184;5.406;2024-03-23T13:23:21;13.70;90.20
16643;DHT22;8435;52.184;5.406;2024-03-23T13:25:51;13.70;90.60
16643;DHT22;8435;52.184;5.406;2024-03-23T13:28:18;13.70;90.40
16643;DHT22;8435;52.184;5.406;2024-03-23T13:30:50;13.70;90.80
16643;DHT22;8435;52.184;5.406;2024-03-23T13:33:16;13.70;88.60
16643;DHT22;8435;52.184;5.406;2024-03-23T13:35:49;13.60;90.00
16643;DHT22;8435;52.184;5.406;2024-03-23T13:38:16;13.50;88.10
16643;DHT22;8435;52.184;5.406;2024-03-23T13:40:50;13.40;87.20
16643;DHT22;8435;52.184;5.406;2024-03-23T13:43:16;13.30;87.20
16643;DHT22;8435;52.184;5.406;2024-03-23T13:45:43;13.30;89.30
16643;DHT22;8435;52.184;5.406;2024-03-23T13:48:09;13.10;89.80
16643;DHT22;8435;52.184;5.406;2024-03-23T13:50:36;13.00;90.20
16643;DHT22;8435;52.184;5.406;2024-03-23T13:53:01;13.00;90.60
16643;DHT22;8435;52.184;5.406;2024-03-23T13:55:29;12.90;91.70
16643;DHT22;8435;52.184;5.406;2024-03-23T13:57:55;12.80;92.40
16643;DHT22;8435;52.184;5.406;2024-03-23T14:00:22;12.80;93.20
16643;DHT22;8435;52.184;5.406;2024-03-23T14:02:48;12.70;92.90
16643;DHT22;8435;52.184;5.406;2024-03-23T14:05:15;12.60;93.10
16643;DHT22;8435;52.184;5.406;2024-03-23T14:07:40;12.50;93.40
16643;DHT22;8435;52.184;5.406;2024-03-23T14:10:08;12.50;93.90
16643;DHT22;8435;52.184;5.406;2024-03-23T14:12:37;12.40;94.10
16643;DHT22;8435;52.184;5.406;2024-03-23T14:15:05;12.40;94.40
16643;DHT22;8435;52.184;5.406;2024-03-23T14:17:31;12.30;94.50
16643;DHT22;8435;52.184;5.406;2024-03-23T14:19:58;12.30;94.70
16643;DHT22;8435;52.184;5.406;2024-03-23T14:22:26;12.30;95.10
16643;DHT22;8435;52.184;5.406;2024-03-23T14:24:53;12.30;95.20
16643;DHT22;8435;52.184;5.406;2024-03-23T14:27:19;12.30;95.20
16643;DHT22;8435;52.184;5.406;2024-03-23T14:29:48;12.40;95.10
16643;DHT22;8435;52.184;5.406;2024-03-23T14:32:14;12.40;95.00
16643;DHT22;8435;52.184;5.406;2024-03-23T14:34:41;12.40;95.10
16643;DHT22;8435;52.184;5.406;2024-03-23T14:37:07;12.50;95.10
16643;DHT22;8435;52.184;5.406;2024-03-23T14:39:34;12.50;94.90
16643;DHT22;8435;52.184;5.406;2024-03-23T14:42:00;12.50;94.40
16643;DHT22;8435;52.184;5.406;2024-03-23T14:44:27;12.50;94.50
16643;DHT22;8435;52.184;5.406;2024-03-23T14:46:54;12.50;94.20
16643;DHT22;8435;52.184;5.406;2024-03-23T14:49:21;12.60;93.80
16643;DHT22;8435;52.184;5.406;2024-03-23T14:51:47;12.60;93.40
16643;DHT22;8435;52.184;5.406;2024-03-23T14:54:14;12.60;93.40
16643;DHT22;8435;52.184;5.406;2024-03-23T14:56:40;12.60;93.00
16643;DHT22;8435;52.184;5.406;2024-03-23T14:59:07;12.70;92.80
16643;DHT22;8435;52.184;5.406;2024-03-23T15:01:33;12.70;92.60
16643;DHT22;8435;52.184;5.406;2024-03-23T15:04:01;12.70;92.20
16643;DHT22;8435;52.184;5.406;2024-03-23T15:06:29;12.70;92.40
16643;DHT22;8435;52.184;5.406;2024-03-23T15:08:56;12.70;93.30
16643;DHT22;8435;52.184;5.406;2024-03-23T15:11:21;12.60;93.70
16643;DHT22;8435;52.184;5.406;2024-03-23T15:13:50;12.50;94.00
16643;DHT22;8435;52.184;5.406;2024-03-23T15:16:17;12.50;94.50
16643;DHT22;8435;52.184;5.406;2024-03-23T15:18:45;12.50;94.60
16643;DHT22;8435;52.184;5.406;2024-03-23T15:21:12;12.30;94.60
16643;DHT22;8435;52.184;5.406;2024-03-23T15:23:45;12.30;94.20
16643;DHT22;8435;52.184;5.406;2024-03-23T15:26:11;12.30;94.30
16643;DHT22;8435;52.184;5.406;2024-03-23T15:28:37;12.20;94.10
16643;DHT22;8435;52.184;5.406;2024-03-23T15:31:03;12.20;94.10
16643;DHT22;8435;52.184;5.406;2024-03-23T15:33:30;12.20;94.20
16643;DHT22;8435;52.184;5.406;2024-03-23T15:35:58;12.10;94.20
16643;DHT22;8435;52.184;5.406;2024-03-23T15:38:26;12.10;94.40
16643;DHT22;8435;52.184;5.406;2024-03-23T15:40:52;12.00;94.40
16643;DHT22;8435;52.184;5.406;2024-03-23T15:43:19;12.00;94.50
16643;DHT22;8435;52.184;5.406;2024-03-23T15:45:53;12.00;94.50
16643;DHT22;8435;52.184;5.406;2024-03-23T15:48:20;11.90;94.50
16643;DHT22;8435;52.184;5.406;2024-03-23T15:50:50;12.00;94.80
16643;DHT22;8435;52.184;5.406;2024-03-23T15:53:18;12.00;94.80
16643;DHT22;8435;52.184;5.406;2024-03-23T15:55:46;11.90;94.90
16643;DHT22;8435;52.184;5.406;2024-03-23T15:58:19;11.90;95.00
16643;DHT22;8435;52.184;5.406;2024-03-23T16:00:46;11.90;94.90
16643;DHT22;8435;52.184;5.406;2024-03-23T16:03:12;12.00;95.10
16643;DHT22;8435;52.184;5.406;2024-03-23T16:05:38;11.90;95.30
16643;DHT22;8435;52.184;5.406;2024-03-23T16:08:05;11.80;95.40
16643;DHT22;8435;52.184;5.406;2024-03-23T16:10:33;11.80;95.50
16643;DHT22;8435;52.184;5.406;2024-03-23T16:13:01;11.80;95.80
16643;DHT22;8435;52.184;5.406;2024-03-23T16:15:27;11.80;95.80
16643;DHT22;8435;52.184;5.406;2024-03-23T16:17:54;11.70;96.00
16643;DHT22;8435;52.184;5.406;2024-03-23T16:20:19;11.70;96.10
16643;DHT22;8435;52.184;5.406;2024-03-23T16:22:47;11.60;96.20
16643;DHT22;8435;52.184;5.406;2024-03-23T16:25:13;11.60;96.30
16643;DHT22;8435;52.184;5.406;2024-03-23T16:27:39;11.60;95.70
16643;DHT22;8435;52.184;5.406;2024-03-23T16:30:08;11.60;95.70
16643;DHT22;8435;52.184;5.406;2024-03-23T16:32:35;11.50;95.50
16643;DHT22;8435;52.184;5.406;2024-03-23T16:35:03;11.50;95.40
16643;DHT22;8435;52.184;5.406;2024-03-23T16:37:29;11.50;95.40
16643;DHT22;8435;52.184;5.406;2024-03-23T16:39:55;11.50;95.30
16643;DHT22;8435;52.184;5.406;2024-03-23T16:42:22;11.40;95.30
16643;DHT22;8435;52.184;5.406;2024-03-23T16:44:48;11.30;95.40